Time;durP1;ratioP1;P1;durP2;ratioP2;P2;SDS_P1;SDS_P2;PMS_P1;PMS_P2;Temp;Humidity;BMP_temperature;BMP_pressure;BME280_temperature;BME280_humidity;BME280_pressure;Samples;Min_cycle;Max_cycle;Signal;HPM_P1;HPM_P2
2023/03/17 00:00:05;;;;;;;0.20;0.20;;;;;;;15.77;41.97;100865.72;4971767;28;20046;-61
2023/03/17 00:02:31;;;;;;;0.30;0.30;;;;;;;15.93;41.72;100853.09;4973204;28;20035;-60
2023/03/17 00:04:56;;;;;;;0.30;0.30;;;;;;;15.70;42.28;100846.94;4976590;28;20506;-61
2023/03/17 00:07:22;;;;;;;0.40;0.40;;;;;;;15.67;42.30;100850.19;4977187;28;20092;-60
2023/03/17 00:09:47;;;;;;;0.20;0.20;;;;;;;15.47;42.06;100860.84;4976822;28;20472;-59
2023/03/17 00:12:14;;;;;;;0.30;0.30;;;;;;;15.80;41.43;100876.06;4978015;28;20031;-60
2023/03/17 00:14:40;;;;;;;0.20;0.20;;;;;;;15.76;41.55;100880.34;4977493;28;20490;-61
2023/03/17 00:17:08;;;;;;;0.38;0.38;;;;;;;16.09;40.83;100874.66;4976403;28;20319;-62
2023/03/17 00:19:34;;;;;;;0.20;0.20;;;;;;;16.00;41.22;100872.69;4981568;28;20054;-60
2023/03/17 00:22:01;;;;;;;0.20;0.20;;;;;;;15.20;43.09;100881.66;4977060;28;20023;-61
2023/03/17 00:24:27;;;;;;;0.20;0.20;;;;;;;15.78;41.62;100875.50;4976133;28;20493;-61
2023/03/17 00:26:53;;;;;;;0.28;0.28;;;;;;;15.70;42.00;100886.81;4977736;28;20398;-60
2023/03/17 00:29:18;;;;;;;0.10;0.10;;;;;;;15.65;41.61;100897.56;4976595;28;20043;-60
2023/03/17 00:31:44;;;;;;;0.30;0.30;;;;;;;15.97;41.23;100894.88;4978652;28;20030;-60
2023/03/17 00:34:15;;;;;;;0.30;0.30;;;;;;;15.72;41.74;100874.59;4975485;28;20023;-61
2023/03/17 00:36:41;;;;;;;0.30;0.30;;;;;;;15.44;42.68;100866.78;4976279;28;20489;-62
2023/03/17 00:39:12;;;;;;;0.10;0.10;;;;;;;15.86;41.62;100890.44;4978255;28;20049;-61
2023/03/17 00:41:38;;;;;;;;;;;;;;;16.09;40.64;100882.78;4979130;28;20121;-58
2023/03/17 00:44:03;;;;;;;0.20;0.20;;;;;;;16.36;39.76;100879.97;4971521;28;20013;-60
2023/03/17 00:46:34;;;;;;;0.20;0.20;;;;;;;16.23;39.82;100881.25;4976649;28;20034;-59
2023/03/17 00:49:01;;;;;;;0.15;0.15;;;;;;;15.90;40.51;100869.91;4966091;28;20126;-61
2023/03/17 00:51:28;;;;;;;0.50;0.50;;;;;;;16.17;40.58;100873.34;4967456;28;20031;-60
2023/03/17 00:53:53;;;;;;;0.25;0.25;;;;;;;15.70;41.05;100871.34;4977861;28;20093;-59
2023/03/17 00:56:20;;;;;;;0.20;0.20;;;;;;;15.62;41.43;100857.47;4977154;28;20043;-62
2023/03/17 00:58:47;;;;;;;0.30;0.30;;;;;;;15.72;41.22;100858.34;4976301;28;21322;-59
2023/03/17 01:01:12;;;;;;;0.30;0.30;;;;;;;15.76;41.17;100850.53;4987839;28;20153;-60
2023/03/17 01:03:38;;;;;;;0.50;0.50;;;;;;;15.77;41.48;100853.00;4994253;28;20042;-59
2023/03/17 01:06:06;;;;;;;0.30;0.30;;;;;;;15.59;41.65;100847.94;4983437;28;20036;-60
2023/03/17 01:08:32;;;;;;;0.30;0.30;;;;;;;15.39;42.14;100847.72;4986312;28;20092;-61
2023/03/17 01:10:58;;;;;;;0.30;0.30;;;;;;;15.91;41.67;100847.94;4990424;28;20042;-60
2023/03/17 01:13:24;;;;;;;0.20;0.20;;;;;;;15.47;41.96;100841.88;4991606;28;20117;-60
2023/03/17 01:15:50;;;;;;;0.40;0.40;;;;;;;15.87;40.84;100837.88;4986692;28;20722;-61
2023/03/17 01:18:19;;;;;;;0.30;0.30;;;;;;;15.51;41.99;100844.88;5010491;28;20041;-60
2023/03/17 01:20:45;;;;;;;0.10;0.10;;;;;;;15.44;41.83;100847.00;5010406;28;20108;-62
2023/03/17 01:23:11;;;;;;;0.20;0.20;;;;;;;15.37;41.89;100851.78;5012825;28;20521;-61
2023/03/17 01:25:38;;;;;;;0.25;0.25;;;;;;;16.12;40.59;100832.63;5014132;28;20492;-60
2023/03/17 01:28:04;;;;;;;0.30;0.30;;;;;;;15.82;40.63;100836.75;5014620;28;20140;-60
2023/03/17 01:30:36;;;;;;;0.30;0.30;;;;;;;15.89;41.00;100835.72;5007829;28;20042;-61
2023/03/17 01:33:02;;;;;;;0.20;0.20;;;;;;;16.02;40.68;100829.88;4994307;28;20049;-61
2023/03/17 01:35:29;;;;;;;0.20;0.20;;;;;;;16.02;40.50;100811.69;4993834;28;20034;-60
2023/03/17 01:37:56;;;;;;;0.30;0.30;;;;;;;15.94;40.65;100806.75;4994423;28;20537;-59
2023/03/17 01:40:31;;;;;;;0.25;0.25;;;;;;;16.26;40.45;100806.69;4994775;28;20018;-60
2023/03/17 01:43:05;;;;;;;0.20;0.20;;;;;;;15.46;41.65;100810.47;4994695;28;20061;-61
2023/03/17 01:46:08;;;;;;;0.10;0.10;;;;;;;16.11;40.76;100815.56;4993848;28;20536;-60
2023/03/17 01:48:39;;;;;;;0.30;0.30;;;;;;;16.50;39.65;100825.03;4994122;28;20045;-60
2023/03/17 01:51:08;;;;;;;0.30;0.30;;;;;;;16.26;40.05;100818.34;4993857;28;20050;-60
2023/03/17 01:53:36;;;;;;;0.17;0.17;;;;;;;16.35;39.55;100816.75;4993839;28;20035;-61
2023/03/17 01:56:04;;;;;;;0.20;0.20;;;;;;;16.05;40.47;100813.06;4993755;28;20034;-61
2023/03/17 01:58:32;;;;;;;0.22;0.22;;;;;;;16.07;40.57;100819.03;4994476;28;20116;-59
2023/03/17 02:00:57;;;;;;;0.20;0.20;;;;;;;15.84;40.80;100815.63;4994197;28;20462;-59
2023/03/17 02:03:23;;;;;;;0.38;0.38;;;;;;;16.01;40.61;100818.19;4993935;28;20094;-62
2023/03/17 02:05:51;;;;;;;0.30;0.30;;;;;;;16.08;39.88;100813.34;4993763;28;20074;-60
2023/03/17 02:08:17;;;;;;;0.20;0.20;;;;;;;16.16;40.09;100810.16;4993857;28;20042;-59
2023/03/17 02:10:44;;;;;;;0.15;0.15;;;;;;;16.33;39.57;100808.06;4993857;28;20026;-59
2023/03/17 02:13:12;;;;;;;0.25;0.25;;;;;;;16.18;40.04;100790.91;4994358;28;20022;-59
2023/03/17 02:15:49;;;;;;;0.30;0.30;;;;;;;16.13;39.93;100782.75;4993027;28;20509;-59
2023/03/17 02:18:18;;;;;;;0.20;0.20;;;;;;;16.19;39.89;100779.00;4993785;28;20046;-61
2023/03/17 02:20:46;;;;;;;0.20;0.20;;;;;;;16.35;39.58;100783.41;4993732;28;20094;-60
2023/03/17 02:23:15;;;;;;;0.20;0.20;;;;;;;15.89;40.51;100785.06;4993426;28;20052;-60
2023/03/17 02:25:44;;;;;;;0.20;0.20;;;;;;;15.27;42.51;100784.00;4993059;28;20042;-61
2023/03/17 02:28:15;;;;;;;0.20;0.20;;;;;;;15.72;41.07;100781.69;4993284;28;20300;-61
2023/03/17 02:30:41;;;;;;;0.30;0.30;;;;;;;16.24;39.76;100776.28;4993343;28;20050;-59
2023/03/17 02:33:07;;;;;;;0.30;0.30;;;;;;;16.15;40.09;100780.59;4992914;28;20054;-60
2023/03/17 02:35:33;;;;;;;0.10;0.10;;;;;;;15.37;41.58;100779.47;4991852;28;20027;-63
2023/03/17 02:37:59;;;;;;;0.15;0.15;;;;;;;15.46;41.67;100779.84;4993315;28;20398;-60
2023/03/17 02:40:26;;;;;;;0.20;0.20;;;;;;;16.02;40.59;100786.50;4993535;28;20474;-61
2023/03/17 02:42:52;;;;;;;0.32;0.32;;;;;;;16.42;39.61;100784.81;4992912;28;20031;-60
2023/03/17 02:45:18;;;;;;;0.20;0.20;;;;;;;16.02;40.20;100786.50;4992622;28;20030;-60
2023/03/17 02:47:45;;;;;;;0.10;0.10;;;;;;;16.06;40.39;100782.19;4992648;28;20038;-60
2023/03/17 02:50:18;;;;;;;0.20;0.20;;;;;;;16.47;39.48;100789.44;4993126;28;20509;-59
2023/03/17 02:52:44;;;;;;;0.30;0.30;;;;;;;16.61;39.00;100786.00;4988022;28;20117;-60
2023/03/17 02:55:09;;;;;;;0.40;0.40;;;;;;;16.09;40.29;100779.75;4985547;28;20089;-61
2023/03/17 02:57:35;;;;;;;0.22;0.22;;;;;;;16.29;39.50;100777.16;4992818;28;20524;-59
2023/03/17 03:00:00;;;;;;;0.30;0.30;;;;;;;16.10;39.81;100769.72;4992720;28;20042;-60
2023/03/17 03:02:26;;;;;;;0.30;0.30;;;;;;;16.34;39.81;100773.63;4992525;28;20073;-61
2023/03/17 03:04:51;;;;;;;0.22;0.22;;;;;;;15.79;40.54;100769.53;4992812;28;20042;-60
2023/03/17 03:07:17;;;;;;;0.30;0.30;;;;;;;15.24;41.78;100771.78;4993478;28;20389;-61
2023/03/17 03:09:43;;;;;;;0.30;0.30;;;;;;;15.25;41.85;100769.91;4992688;28;20049;-62
2023/03/17 03:12:10;;;;;;;0.20;0.20;;;;;;;15.84;40.98;100774.19;4992538;28;20123;-61
2023/03/17 03:14:36;;;;;;;0.30;0.30;;;;;;;15.62;41.13;100770.78;4992293;28;20097;-61
2023/03/17 03:17:01;;;;;;;0.20;0.20;;;;;;;16.13;40.08;100775.44;4977889;28;20114;-61
2023/03/17 03:19:27;;;;;;;0.10;0.10;;;;;;;15.98;40.28;100769.91;4973362;28;20381;-60
2023/03/17 03:21:52;;;;;;;0.30;0.30;;;;;;;16.10;39.75;100773.25;4973002;28;20043;-60
2023/03/17 03:24:17;;;;;;;0.20;0.20;;;;;;;15.30;41.83;100775.34;4960749;28;20550;-60
2023/03/17 03:26:43;;;;;;;0.30;0.30;;;;;;;15.77;40.76;100777.13;4972914;28;20121;-59
2023/03/17 03:29:08;;;;;;;0.30;0.30;;;;;;;15.57;41.16;100781.56;4972939;28;20550;-61
2023/03/17 03:31:34;;;;;;;0.30;0.30;;;;;;;15.88;40.49;100777.97;4970744;28;20133;-62
2023/03/17 03:33:59;;;;;;;0.30;0.30;;;;;;;15.89;40.58;100776.09;4976685;28;20460;-61
2023/03/17 03:36:25;;;;;;;0.30;0.30;;;;;;;16.02;40.21;100781.88;4974421;28;20041;-62
2023/03/17 03:38:51;;;;;;;0.22;0.22;;;;;;;15.92;40.28;100781.81;4992297;28;20105;-60
2023/03/17 03:41:17;;;;;;;0.20;0.20;;;;;;;16.19;39.74;100787.97;4992080;28;20060;-59
2023/03/17 03:43:42;;;;;;;0.25;0.25;;;;;;;15.68;40.88;100775.16;4992400;28;20045;-60
2023/03/17 03:46:07;;;;;;;0.30;0.30;;;;;;;15.69;40.98;100761.34;4992225;28;20202;-59
2023/03/17 03:48:33;;;;;;;0.22;0.22;;;;;;;15.74;40.93;100764.06;4992150;28;20038;-61
2023/03/17 03:51:00;;;;;;;0.30;0.30;;;;;;;15.53;41.66;100756.91;4975403;28;20039;-61
2023/03/17 03:53:27;;;;;;;0.28;0.28;;;;;;;15.88;40.76;100758.22;4972712;28;20174;-60
2023/03/17 03:55:53;;;;;;;0.20;0.20;;;;;;;16.04;40.10;100752.59;4972211;28;20030;-60
2023/03/17 03:58:18;;;;;;;0.20;0.20;;;;;;;15.58;41.34;100770.50;4972740;28;20030;-61
2023/03/17 04:00:44;;;;;;;0.10;0.10;;;;;;;15.93;40.49;100774.50;4974138;28;20047;-60
2023/03/17 04:03:10;;;;;;;0.20;0.20;;;;;;;15.32;41.09;100778.63;4989853;28;20137;-60
2023/03/17 04:05:35;;;;;;;0.20;0.20;;;;;;;15.91;40.57;100782.91;5009560;28;20108;-60
2023/03/17 04:08:00;;;;;;;0.30;0.28;;;;;;;15.89;40.45;100776.94;5011081;28;20121;-59
2023/03/17 04:10:26;;;;;;;0.20;0.20;;;;;;;15.68;41.20;100783.28;4993575;28;20121;-60
2023/03/17 04:12:51;;;;;;;0.30;0.30;;;;;;;15.71;41.46;100786.28;4991628;28;20058;-62
2023/03/17 04:15:19;;;;;;;0.20;0.20;;;;;;;15.26;42.48;100779.66;4991469;28;20046;-59
2023/03/17 04:17:45;;;;;;;0.30;0.30;;;;;;;15.41;42.13;100775.19;4991631;28;20045;-62
2023/03/17 04:20:13;;;;;;;0.20;0.20;;;;;;;15.49;41.82;100773.91;4991196;28;20498;-61
2023/03/17 04:22:40;;;;;;;0.25;0.25;;;;;;;15.52;41.19;100778.81;4989901;28;20068;-61
2023/03/17 04:25:06;;;;;;;0.43;0.43;;;;;;;15.27;42.91;100784.00;4990446;28;20389;-61
2023/03/17 04:27:31;;;;;;;0.20;0.20;;;;;;;15.21;43.00;100779.63;4991258;28;20117;-59
2023/03/17 04:29:57;;;;;;;0.10;0.10;;;;;;;15.38;42.18;100769.47;4991297;28;20189;-60
2023/03/17 04:32:22;;;;;;;0.40;0.40;;;;;;;15.16;42.78;100768.72;4989746;28;20038;-61
2023/03/17 04:34:47;;;;;;;0.40;0.40;;;;;;;15.46;41.94;100769.03;4991190;28;20229;-60
2023/03/17 04:37:13;;;;;;;0.22;0.22;;;;;;;15.50;42.16;100770.16;4992076;28;20036;-61
2023/03/17 04:39:38;;;;;;;0.10;0.10;;;;;;;15.16;42.88;100774.13;4991541;28;20100;-59
2023/03/17 04:42:05;;;;;;;0.20;0.20;;;;;;;15.79;41.46;100766.00;4973658;28;20038;-61
2023/03/17 04:44:31;;;;;;;0.30;0.30;;;;;;;15.23;42.74;100777.47;4991128;28;20034;-61
2023/03/17 04:46:57;;;;;;;0.40;0.40;;;;;;;15.64;42.02;100783.00;4991273;28;20057;-60
2023/03/17 04:49:22;;;;;;;0.30;0.30;;;;;;;15.34;42.29;100790.00;4991740;28;20117;-62
2023/03/17 04:51:47;;;;;;;0.30;0.30;;;;;;;15.66;41.74;100790.84;4990924;28;20072;-59
2023/03/17 04:54:13;;;;;;;0.30;0.30;;;;;;;15.94;40.99;100798.63;4991384;28;20126;-60
2023/03/17 04:56:38;;;;;;;0.32;0.32;;;;;;;15.34;41.96;100793.53;4990641;28;20188;-59
2023/03/17 04:59:04;;;;;;;0.22;0.22;;;;;;;15.44;42.26;100798.25;4994973;28;20421;-60
2023/03/17 05:01:30;;;;;;;0.38;0.38;;;;;;;15.48;42.36;100794.78;4991869;28;20108;-60
2023/03/17 05:03:56;;;;;;;0.30;0.30;;;;;;;15.36;42.82;100804.94;4990222;28;20255;-62
2023/03/17 05:06:21;;;;;;;0.20;0.20;;;;;;;15.21;43.01;100795.84;4994259;28;20034;-61
2023/03/17 05:08:47;;;;;;;0.30;0.30;;;;;;;15.37;42.14;100787.59;4994750;28;20050;-61
2023/03/17 05:11:13;;;;;;;0.28;0.28;;;;;;;15.40;42.34;100780.84;4992463;28;20062;-60
2023/03/17 05:13:39;;;;;;;0.40;0.40;;;;;;;14.72;43.98;100787.75;4994715;28;20450;-59
2023/03/17 05:16:06;;;;;;;0.25;0.25;;;;;;;15.56;42.11;100775.34;4994806;28;20035;-60
2023/03/17 05:18:32;;;;;;;0.40;0.40;;;;;;;15.45;42.10;100770.91;4994535;28;20046;-60
2023/03/17 05:20:58;;;;;;;0.20;0.20;;;;;;;15.50;41.90;100780.97;4994610;28;20569;-59
2023/03/17 05:23:24;;;;;;;0.22;0.22;;;;;;;15.66;41.50;100790.84;4994709;28;20042;-58
2023/03/17 05:25:51;;;;;;;0.30;0.30;;;;;;;15.25;42.21;100799.69;4994659;28;20060;-62
2023/03/17 05:28:18;;;;;;;0.20;0.20;;;;;;;15.60;41.79;100800.03;4994830;28;20038;-60
2023/03/17 05:30:44;;;;;;;0.10;0.10;;;;;;;15.36;42.31;100799.53;4994212;28;20054;-59
2023/03/17 05:33:10;;;;;;;0.20;0.20;;;;;;;15.10;42.94;100803.06;4994404;28;20034;-60
2023/03/17 05:35:35;;;;;;;0.20;0.20;;;;;;;15.30;42.57;100792.41;4994362;28;20502;-61
2023/03/17 05:38:01;;;;;;;0.20;0.20;;;;;;;15.35;42.59;100791.66;4994305;28;20054;-60
2023/03/17 05:40:26;;;;;;;0.30;0.30;;;;;;;15.01;43.21;100792.94;4994772;28;20057;-60
2023/03/17 05:42:51;;;;;;;0.22;0.22;;;;;;;15.36;42.38;100793.28;4994181;28;20117;-61
2023/03/17 05:45:17;;;;;;;0.38;0.38;;;;;;;15.60;41.87;100778.34;4994342;28;20034;-59
2023/03/17 05:47:43;;;;;;;0.30;0.30;;;;;;;15.24;42.84;100781.78;4994596;28;20062;-61
2023/03/17 05:50:10;;;;;;;0.32;0.32;;;;;;;15.64;41.91;100784.88;4994009;28;20209;-62
2023/03/17 05:52:36;;;;;;;0.30;0.30;;;;;;;15.75;41.91;100783.88;4993502;28;20026;-60
2023/03/17 05:55:02;;;;;;;0.20;0.20;;;;;;;15.12;43.28;100781.97;4994858;28;20210;-61
2023/03/17 05:57:28;;;;;;;0.30;0.30;;;;;;;15.22;42.75;100789.34;4993411;28;20057;-61
2023/03/17 05:59:53;;;;;;;0.20;0.20;;;;;;;15.11;42.83;100803.88;4993914;28;20031;-60
2023/03/17 06:02:19;;;;;;;0.30;0.30;;;;;;;15.55;41.83;100798.06;4988448;28;20481;-59
2023/03/17 06:04:45;;;;;;;0.30;0.30;;;;;;;15.74;41.66;100791.16;4974784;28;20027;-61
2023/03/17 06:07:10;;;;;;;0.30;0.30;;;;;;;15.65;41.71;100773.78;4975068;28;20648;-59
2023/03/17 06:09:36;;;;;;;0.30;0.30;;;;;;;16.15;40.81;100769.75;4973035;28;20043;-60
2023/03/17 06:12:01;;;;;;;0.28;0.28;;;;;;;16.00;41.29;100777.81;4975410;28;20111;-62
2023/03/17 06:14:27;;;;;;;0.30;0.30;;;;;;;16.00;40.83;100750.72;4974605;28;20038;-60
2023/03/17 06:16:52;;;;;;;0.20;0.20;;;;;;;16.21;40.59;100739.69;4974058;28;20031;-62
2023/03/17 06:19:18;;;;;;;0.10;0.10;;;;;;;15.70;41.46;100729.66;4973138;28;20031;-62
2023/03/17 06:21:43;;;;;;;0.30;0.30;;;;;;;15.63;41.93;100742.59;4973271;28;20039;-60
2023/03/17 06:24:09;;;;;;;0.20;0.20;;;;;;;15.58;41.63;100750.69;4974087;28;20039;-61
2023/03/17 06:26:36;;;;;;;0.30;0.30;;;;;;;15.49;41.79;100750.38;4972735;28;20043;-61
2023/03/17 06:29:02;;;;;;;0.20;0.20;;;;;;;15.67;41.91;100743.72;4971994;28;20045;-61
2023/03/17 06:31:27;;;;;;;0.20;0.20;;;;;;;15.34;41.98;100742.09;4973801;28;20038;-60
2023/03/17 06:33:53;;;;;;;0.20;0.20;;;;;;;16.02;40.84;100760.19;4972949;28;20113;-60
2023/03/17 06:36:18;;;;;;;0.30;0.30;;;;;;;15.69;41.41;100766.75;4972861;28;20066;-61
2023/03/17 06:38:44;;;;;;;0.25;0.25;;;;;;;15.91;41.06;100769.34;4972834;28;20069;-60
2023/03/17 06:41:10;;;;;;;0.20;0.20;;;;;;;16.21;40.91;100764.09;4969434;28;20078;-61
2023/03/17 06:43:36;;;;;;;0.20;0.20;;;;;;;16.14;40.30;100773.53;4972782;28;20565;-60
2023/03/17 06:46:03;;;;;;;0.30;0.30;;;;;;;15.93;41.08;100767.19;4973479;28;20051;-60
2023/03/17 06:48:28;;;;;;;0.30;0.30;;;;;;;14.91;43.40;100763.91;4973682;28;20042;-60
2023/03/17 06:50:54;;;;;;;0.20;0.20;;;;;;;16.07;40.84;100764.84;4973016;28;20411;-61
2023/03/17 06:53:20;;;;;;;0.30;0.30;;;;;;;15.62;41.60;100787.84;4972295;28;20070;-61
2023/03/17 06:55:45;;;;;;;0.30;0.30;;;;;;;15.70;41.53;100779.22;4972361;28;20034;-59
2023/03/17 06:58:12;;;;;;;0.32;0.32;;;;;;;16.54;39.73;100780.00;4971110;28;20054;-59
2023/03/17 07:00:38;;;;;;;0.30;0.30;;;;;;;15.98;40.99;100797.03;4965293;28;20042;-60
2023/03/17 07:03:04;;;;;;;0.20;0.20;;;;;;;15.59;41.84;100795.66;4971489;28;20505;-61
2023/03/17 07:05:30;;;;;;;0.30;0.30;;;;;;;15.78;42.01;100796.91;4971491;28;20125;-60
2023/03/17 07:07:56;;;;;;;0.20;0.20;;;;;;;16.12;41.09;100795.50;4970920;28;20046;-61
2023/03/17 07:10:22;;;;;;;0.20;0.20;;;;;;;15.75;41.78;100792.81;4971585;28;20030;-61
2023/03/17 07:12:48;;;;;;;0.30;0.30;;;;;;;16.04;41.50;100785.13;4969254;28;20491;-59
2023/03/17 07:15:14;;;;;;;0.40;0.40;;;;;;;16.24;40.96;100793.38;4969694;28;20403;-60
2023/03/17 07:17:40;;;;;;;0.30;0.30;;;;;;;16.32;41.15;100789.34;4963489;28;20054;-62
2023/03/17 07:20:05;;;;;;;0.32;0.32;;;;;;;16.63;40.50;100800.09;4968149;28;20058;-60
2023/03/17 07:22:31;;;;;;;0.40;0.40;;;;;;;16.47;41.07;100778.59;4969874;28;20022;-60
2023/03/17 07:24:57;;;;;;;0.17;0.17;;;;;;;16.44;40.98;100779.94;4970737;28;20026;-62
2023/03/17 07:27:25;;;;;;;0.28;0.28;;;;;;;15.62;42.43;100787.84;4967377;28;20062;-60
2023/03/17 07:29:50;;;;;;;0.20;0.20;;;;;;;16.57;40.61;100778.63;4970319;28;20066;-60
2023/03/17 07:32:16;;;;;;;0.30;0.30;;;;;;;16.19;41.29;100782.53;4967575;28;20049;-60
2023/03/17 07:34:42;;;;;;;0.32;0.32;;;;;;;16.18;41.32;100769.22;4966353;28;20111;-61
2023/03/17 07:37:07;;;;;;;0.30;0.30;;;;;;;16.01;42.10;100772.13;4973399;28;21018;-60
2023/03/17 07:39:33;;;;;;;0.20;0.20;;;;;;;16.71;40.48;100770.84;4964303;28;20039;-59
2023/03/17 07:41:58;;;;;;;0.30;0.30;;;;;;;17.23;39.71;100772.28;4965193;28;20061;-60
2023/03/17 07:44:24;;;;;;;0.20;0.20;;;;;;;17.04;39.69;100776.59;4968442;28;20132;-59
2023/03/17 07:46:51;;;;;;;0.32;0.32;;;;;;;17.27;38.99;100769.84;4967782;28;20051;-60
2023/03/17 07:49:17;;;;;;;0.15;0.15;;;;;;;17.58;38.46;100768.78;4967898;28;20043;-61
2023/03/17 07:51:42;;;;;;;0.22;0.22;;;;;;;16.57;39.89;100774.03;4968932;28;20613;-63
2023/03/17 07:54:09;;;;;;;0.20;0.20;;;;;;;17.43;38.99;100790.50;4968283;28;20122;-61
2023/03/17 07:56:35;;;;;;;0.10;0.10;;;;;;;17.40;39.12;100778.28;4967235;28;20384;-60
2023/03/17 07:59:00;;;;;;;0.20;0.20;;;;;;;17.72;38.27;100783.44;4967760;28;20062;-59
2023/03/17 08:01:27;;;;;;;0.17;0.17;;;;;;;17.50;38.38;100772.03;4968464;28;20077;-61
2023/03/17 08:03:53;;;;;;;0.20;0.20;;;;;;;17.44;39.55;100768.50;4966411;28;20505;-61
2023/03/17 08:06:18;;;;;;;0.25;0.25;;;;;;;17.33;39.26;100768.75;4966919;28;20038;-60
2023/03/17 08:08:44;;;;;;;0.20;0.20;;;;;;;17.69;38.66;100758.72;4971927;28;20031;-60
2023/03/17 08:11:11;;;;;;;0.20;0.20;;;;;;;16.97;39.53;100754.34;4964913;28;20189;-59
2023/03/17 08:13:36;;;;;;;0.20;0.20;;;;;;;17.21;39.32;100760.06;4969175;28;20030;-59
2023/03/17 08:16:02;;;;;;;0.30;0.30;;;;;;;17.08;39.94;100755.16;4972380;28;20125;-60
2023/03/17 08:18:27;;;;;;;0.30;0.30;;;;;;;17.81;37.85;100762.78;4968582;28;20054;-60
2023/03/17 08:20:52;;;;;;;0.20;0.20;;;;;;;17.87;37.97;100772.53;4970250;28;20042;-60
2023/03/17 08:23:19;;;;;;;0.30;0.30;;;;;;;17.43;39.43;100772.28;4967526;28;20035;-61
2023/03/17 08:25:45;;;;;;;0.20;0.20;;;;;;;17.02;39.73;100773.31;4966705;28;20018;-60
2023/03/17 08:28:11;;;;;;;0.10;0.10;;;;;;;17.30;39.30;100772.81;4968636;28;20023;-59
2023/03/17 08:30:37;;;;;;;0.30;0.30;;;;;;;16.90;40.26;100772.78;4967580;28;20035;-59
2023/03/17 08:33:03;;;;;;;0.20;0.20;;;;;;;16.43;41.70;100778.28;4968076;28;20046;-61
2023/03/17 08:35:29;;;;;;;0.30;0.30;;;;;;;17.05;40.92;100782.84;4968650;28;20030;-60
2023/03/17 08:37:55;;;;;;;0.20;0.20;;;;;;;16.72;41.50;100778.72;4967764;28;20031;-59
2023/03/17 08:40:21;;;;;;;0.17;0.17;;;;;;;17.14;40.42;100759.53;4967783;28;20531;-61
2023/03/17 08:42:48;;;;;;;0.10;0.10;;;;;;;17.00;40.87;100756.50;4968108;28;20444;-59
2023/03/17 08:45:15;;;;;;;0.30;0.30;;;;;;;17.25;39.93;100753.81;4968338;28;20031;-60
2023/03/17 08:47:41;;;;;;;0.20;0.20;;;;;;;17.40;39.67;100755.72;4967592;28;20042;-61
2023/03/17 08:50:12;;;;;;;0.20;0.20;;;;;;;17.67;39.13;100752.75;4968492;28;20042;-60
2023/03/17 08:52:38;;;;;;;0.30;0.30;;;;;;;17.20;40.17;100756.53;4967068;28;20378;-59
2023/03/17 08:55:04;;;;;;;0.10;0.10;;;;;;;17.92;38.12;100748.09;4970800;28;20026;-61
2023/03/17 08:57:29;;;;;;;0.20;0.20;;;;;;;18.28;38.63;100749.59;4968820;28;20050;-59
2023/03/17 08:59:54;;;;;;;0.20;0.20;;;;;;;17.98;38.85;100755.16;4962630;28;20095;-60
2023/03/17 09:02:20;;;;;;;0.20;0.20;;;;;;;17.92;38.65;100760.84;4982551;28;20096;-61
2023/03/17 09:04:45;;;;;;;0.20;0.20;;;;;;;18.03;39.53;100773.31;4987899;28;20141;-60
2023/03/17 09:07:11;;;;;;;0.25;0.25;;;;;;;18.23;38.91;100762.41;4987709;28;20041;-60
2023/03/17 09:09:38;;;;;;;0.10;0.10;;;;;;;18.10;39.33;100768.44;4979381;28;20451;-60
2023/03/17 09:12:05;;;;;;;0.20;0.20;;;;;;;18.53;38.52;100758.78;4982802;28;20042;-59
2023/03/17 09:14:33;;;;;;;0.20;0.20;;;;;;;18.28;38.99;100759.66;4982893;28;20734;-60
2023/03/17 09:16:58;;;;;;;0.30;0.30;;;;;;;18.50;38.75;100759.31;5003839;28;20092;-59
2023/03/17 09:19:23;;;;;;;0.10;0.10;;;;;;;18.63;38.04;100747.84;5009255;28;20038;-59
2023/03/17 09:21:50;;;;;;;0.20;0.20;;;;;;;19.11;37.88;100744.25;4995130;28;20114;-60
2023/03/17 09:24:16;;;;;;;0.20;0.20;;;;;;;18.90;38.00;100746.31;4990890;28;20030;-60
2023/03/17 09:26:42;;;;;;;0.20;0.20;;;;;;;19.21;37.90;100746.91;4993416;28;20410;-59
2023/03/17 09:29:07;;;;;;;0.10;0.10;;;;;;;18.94;38.30;100752.81;4988501;28;20031;-60
2023/03/17 09:31:35;;;;;;;0.30;0.30;;;;;;;19.08;37.89;100755.72;4987793;28;20092;-59
2023/03/17 09:34:02;;;;;;;0.20;0.20;;;;;;;18.32;39.89;100750.66;4987404;28;20089;-60
2023/03/17 09:36:28;;;;;;;0.30;0.30;;;;;;;18.80;38.57;100751.81;4994216;28;20031;-61
2023/03/17 09:38:54;;;;;;;0.20;0.20;;;;;;;19.24;37.63;100755.31;4992594;28;20037;-60
2023/03/17 09:41:19;;;;;;;0.10;0.10;;;;;;;19.78;37.01;100751.59;4989536;28;20042;-59
2023/03/17 09:43:47;;;;;;;0.30;0.30;;;;;;;19.56;37.56;100767.63;4988520;28;20137;-60
2023/03/17 09:46:49;;;;;;;0.20;0.20;;;;;;;20.13;36.32;100762.97;4995031;28;20034;-60
2023/03/17 09:49:21;;;;;;;0.20;0.20;;;;;;;20.46;36.26;100766.69;4941433;29;20606;-59
2023/03/17 09:51:48;;;;;;;0.20;0.20;;;;;;;20.53;35.88;100763.59;4923717;29;20040;-60
2023/03/17 09:54:33;;;;;;;0.20;0.20;;;;;;;21.08;34.32;100765.59;4931715;29;20044;-62
2023/03/17 09:57:23;;;;;;;0.20;0.20;;;;;;;20.58;36.00;100758.88;4925744;29;20492;-59
2023/03/17 10:00:13;;;;;;;0.20;0.20;;;;;;;21.00;34.86;100749.81;4920681;29;20431;-59
2023/03/17 10:02:40;;;;;;;0.20;0.20;;;;;;;20.32;35.09;100757.59;4927298;29;20047;-59
2023/03/17 10:05:27;;;;;;;0.20;0.20;;;;;;;20.52;35.36;100754.59;4930456;29;20059;-61
2023/03/17 10:08:11;;;;;;;0.10;0.10;;;;;;;20.81;34.82;100762.69;4931457;29;20040;-61
2023/03/17 10:10:36;;;;;;;0.10;0.10;;;;;;;20.97;34.32;100745.75;4932011;29;20035;-60
2023/03/17 10:13:07;;;;;;;0.10;0.10;;;;;;;20.72;34.39;100750.78;4932197;29;20035;-60
2023/03/17 10:15:42;;;;;;;;;;;;;;;21.33;33.33;100751.50;4931883;29;20511;-59
2023/03/17 10:18:11;;;;;;;0.20;0.20;;;;;;;21.13;33.77;100754.56;4934855;29;19957;-59
2023/03/17 10:20:49;;;;;;;0.20;0.20;;;;;;;19.94;35.59;100744.91;4931730;29;20044;-59
2023/03/17 10:23:19;;;;;;;0.30;0.30;;;;;;;21.04;34.15;100748.16;4929109;29;20044;-61
2023/03/17 10:25:45;;;;;;;0.10;0.10;;;;;;;20.95;34.44;100745.25;4925289;28;20086;-61
2023/03/17 10:28:24;;;;;;;0.10;0.10;;;;;;;22.25;33.44;100740.56;4991359;28;20038;-61
2023/03/17 10:30:51;;;;;;;0.20;0.20;;;;;;;21.31;33.93;100742.81;5011896;28;20038;-61
2023/03/17 10:33:17;;;;;;;0.20;0.20;;;;;;;21.92;33.04;100733.53;5004897;28;20416;-59
2023/03/17 10:35:43;;;;;;;0.20;0.20;;;;;;;21.98;33.32;100737.81;5010740;28;20034;-60
2023/03/17 10:38:19;;;;;;;0.20;0.20;;;;;;;21.86;33.03;100732.03;5006330;28;20026;-60
2023/03/17 10:40:58;;;;;;;0.20;0.20;;;;;;;22.58;32.63;100731.13;4991730;28;20027;-61
2023/03/17 10:43:29;;;;;;;0.10;0.10;;;;;;;21.66;33.18;100746.88;4992173;28;20042;-58
2023/03/17 10:45:57;;;;;;;;;;;;;;;22.48;32.41;100739.53;4991800;28;20054;-60
2023/03/17 10:48:23;;;;;;;0.20;0.20;;;;;;;21.30;34.18;100746.66;5003366;28;19917;-60
2023/03/17 10:50:49;;;;;;;0.10;0.10;;;;;;;20.53;34.70;100750.78;5011437;28;20385;-59
2023/03/17 10:53:26;;;;;;;0.10;0.10;;;;;;;20.54;35.06;100762.50;5002187;28;20049;-60
2023/03/17 10:55:58;;;;;;;0.20;0.20;;;;;;;21.02;34.53;100769.50;4990599;28;20030;-59
2023/03/17 10:58:40;;;;;;;0.10;0.10;;;;;;;20.48;35.64;100780.84;4992265;28;20030;-61
2023/03/17 11:01:29;;;;;;;0.30;0.30;;;;;;;21.37;34.50;100792.72;5002086;28;20058;-59
2023/03/17 11:03:56;;;;;;;0.20;0.20;;;;;;;21.68;33.16;100789.19;4997387;28;20129;-60
2023/03/17 11:06:38;;;;;;;0.10;0.10;;;;;;;21.02;35.35;100791.38;4980036;28;20073;-60
2023/03/17 11:09:08;;;;;;;0.20;0.20;;;;;;;21.81;34.53;100791.22;4985800;28;20208;-60
2023/03/17 11:11:41;;;;;;;;;;;;;;;21.75;33.93;100797.84;5008299;28;20298;-61
2023/03/17 11:14:18;;;;;;;0.20;0.20;;;;;;;22.47;33.08;100787.19;4997642;28;19936;-60
2023/03/17 11:16:57;;;;;;;0.20;0.20;;;;;;;21.99;33.29;100794.16;4990582;28;20041;-59
2023/03/17 11:19:53;;;;;;;0.20;0.20;;;;;;;22.76;33.03;100793.16;4986239;28;20122;-58
2023/03/17 11:22:39;;;;;;;0.20;0.20;;;;;;;23.04;32.51;100796.66;4997068;28;20561;-59
2023/03/17 11:25:14;;;;;;;0.10;0.10;;;;;;;22.81;32.34;100797.75;5003928;28;20510;-60
2023/03/17 11:27:55;;;;;;;0.20;0.20;;;;;;;22.27;33.26;100801.31;4989149;28;20077;-60